sensor_id;sensor_type;location;lat;lon;timestamp;P1;durP1;ratioP1;P2;durP2;ratioP2
5871;SDS011;2962;51.312;7.378;2022-07-19T00:01:23;4.93;;;1.43;;
5871;SDS011;2962;51.312;7.378;2022-07-19T00:03:48;1.20;;;1.20;;
5871;SDS011;2962;51.312;7.378;2022-07-19T00:06:14;0.93;;;0.93;;
5871;SDS011;2962;51.312;7.378;2022-07-19T00:08:39;7.80;;;1.73;;
5871;SDS011;2962;51.312;7.378;2022-07-19T00:11:04;1.90;;;1.80;;
5871;SDS011;2962;51.312;7.378;2022-07-19T00:13:30;1.60;;;1.50;;
5871;SDS011;2962;51.312;7.378;2022-07-19T00:15:55;1.90;;;1.50;;
5871;SDS011;2962;51.312;7.378;2022-07-19T00:18:21;8.80;;;1.60;;
5871;SDS011;2962;51.312;7.378;2022-07-19T00:20:46;1.80;;;1.70;;
5871;SDS011;2962;51.312;7.378;2022-07-19T00:23:12;4.43;;;1.30;;
5871;SDS011;2962;51.312;7.378;2022-07-19T00:25:37;3.50;;;1.20;;
5871;SDS011;2962;51.312;7.378;2022-07-19T00:28:03;3.23;;;1.50;;
5871;SDS011;2962;51.312;7.378;2022-07-19T00:30:28;4.30;;;1.20;;
5871;SDS011;2962;51.312;7.378;2022-07-19T00:32:54;1.53;;;1.37;;
5871;SDS011;2962;51.312;7.378;2022-07-19T00:35:19;1.33;;;1.23;;
5871;SDS011;2962;51.312;7.378;2022-07-19T00:37:44;6.40;;;1.50;;
5871;SDS011;2962;51.312;7.378;2022-07-19T00:40:10;3.47;;;1.70;;
5871;SDS011;2962;51.312;7.378;2022-07-19T00:42:36;1.43;;;1.43;;
5871;SDS011;2962;51.312;7.378;2022-07-19T00:45:03;1.70;;;1.40;;
5871;SDS011;2962;51.312;7.378;2022-07-19T00:47:29;3.50;;;1.60;;
5871;SDS011;2962;51.312;7.378;2022-07-19T00:49:54;1.43;;;1.30;;
5871;SDS011;2962;51.312;7.378;2022-07-19T00:52:20;4.53;;;2.00;;
5871;SDS011;2962;51.312;7.378;2022-07-19T00:54:47;1.60;;;1.60;;
5871;SDS011;2962;51.312;7.378;2022-07-19T00:57:14;1.37;;;1.33;;
5871;SDS011;2962;51.312;7.378;2022-07-19T00:59:40;3.23;;;1.70;;
5871;SDS011;2962;51.312;7.378;2022-07-19T01:02:08;2.83;;;1.60;;
5871;SDS011;2962;51.312;7.378;2022-07-19T01:04:36;2.23;;;1.50;;
5871;SDS011;2962;51.312;7.378;2022-07-19T01:07:02;2.20;;;1.53;;
5871;SDS011;2962;51.312;7.378;2022-07-19T01:09:27;1.60;;;1.40;;
5871;SDS011;2962;51.312;7.378;2022-07-19T01:11:53;1.60;;;1.30;;
5871;SDS011;2962;51.312;7.378;2022-07-19T01:14:18;5.37;;;2.70;;
5871;SDS011;2962;51.312;7.378;2022-07-19T01:16:44;7.40;;;1.50;;
5871;SDS011;2962;51.312;7.378;2022-07-19T01:19:10;1.83;;;1.13;;
5871;SDS011;2962;51.312;7.378;2022-07-19T01:21:36;1.40;;;1.03;;
5871;SDS011;2962;51.312;7.378;2022-07-19T01:24:01;2.63;;;1.40;;
5871;SDS011;2962;51.312;7.378;2022-07-19T01:26:26;4.70;;;1.50;;
5871;SDS011;2962;51.312;7.378;2022-07-19T01:28:52;1.20;;;1.20;;
5871;SDS011;2962;51.312;7.378;2022-07-19T01:31:17;4.30;;;1.77;;
5871;SDS011;2962;51.312;7.378;2022-07-19T01:33:43;2.73;;;1.30;;
5871;SDS011;2962;51.312;7.378;2022-07-19T01:36:09;5.97;;;1.60;;
5871;SDS011;2962;51.312;7.378;2022-07-19T01:38:35;4.83;;;2.00;;
5871;SDS011;2962;51.312;7.378;2022-07-19T01:41:02;2.20;;;1.60;;
5871;SDS011;2962;51.312;7.378;2022-07-19T01:43:27;7.33;;;2.13;;
5871;SDS011;2962;51.312;7.378;2022-07-19T01:45:52;4.10;;;1.40;;
5871;SDS011;2962;51.312;7.378;2022-07-19T01:48:18;4.73;;;1.70;;
5871;SDS011;2962;51.312;7.378;2022-07-19T01:50:44;5.13;;;1.20;;
5871;SDS011;2962;51.312;7.378;2022-07-19T01:53:10;5.27;;;1.67;;
5871;SDS011;2962;51.312;7.378;2022-07-19T01:55:35;2.53;;;1.47;;
5871;SDS011;2962;51.312;7.378;2022-07-19T01:58:00;2.10;;;1.47;;
5871;SDS011;2962;51.312;7.378;2022-07-19T02:00:25;5.30;;;1.93;;
5871;SDS011;2962;51.312;7.378;2022-07-19T02:02:51;2.07;;;1.60;;
5871;SDS011;2962;51.312;7.378;2022-07-19T02:05:16;10.13;;;1.70;;
5871;SDS011;2962;51.312;7.378;2022-07-19T02:07:41;1.83;;;1.70;;
5871;SDS011;2962;51.312;7.378;2022-07-19T02:10:07;3.17;;;1.60;;
5871;SDS011;2962;51.312;7.378;2022-07-19T02:12:33;3.50;;;1.53;;
5871;SDS011;2962;51.312;7.378;2022-07-19T02:14:59;7.73;;;1.80;;
5871;SDS011;2962;51.312;7.378;2022-07-19T02:17:24;2.43;;;1.53;;
5871;SDS011;2962;51.312;7.378;2022-07-19T02:19:50;2.70;;;1.60;;
5871;SDS011;2962;51.312;7.378;2022-07-19T02:22:15;1.70;;;1.50;;
5871;SDS011;2962;51.312;7.378;2022-07-19T02:24:40;4.40;;;1.77;;
5871;SDS011;2962;51.312;7.378;2022-07-19T02:27:07;1.73;;;1.63;;
5871;SDS011;2962;51.312;7.378;2022-07-19T02:29:34;3.43;;;1.70;;
5871;SDS011;2962;51.312;7.378;2022-07-19T02:31:59;1.70;;;1.70;;
5871;SDS011;2962;51.312;7.378;2022-07-19T02:34:24;7.30;;;1.63;;
5871;SDS011;2962;51.312;7.378;2022-07-19T02:36:50;2.23;;;1.43;;
5871;SDS011;2962;51.312;7.378;2022-07-19T02:39:15;1.97;;;1.70;;
5871;SDS011;2962;51.312;7.378;2022-07-19T02:41:40;6.00;;;2.20;;
5871;SDS011;2962;51.312;7.378;2022-07-19T02:44:05;3.40;;;1.73;;
5871;SDS011;2962;51.312;7.378;2022-07-19T02:46:31;1.43;;;1.33;;
5871;SDS011;2962;51.312;7.378;2022-07-19T02:48:57;1.87;;;1.77;;
5871;SDS011;2962;51.312;7.378;2022-07-19T02:51:22;2.00;;;1.40;;
5871;SDS011;2962;51.312;7.378;2022-07-19T02:53:47;2.17;;;1.97;;
5871;SDS011;2962;51.312;7.378;2022-07-19T02:56:12;2.97;;;1.73;;
5871;SDS011;2962;51.312;7.378;2022-07-19T02:58:39;4.30;;;2.00;;
5871;SDS011;2962;51.312;7.378;2022-07-19T03:01:05;5.50;;;1.77;;
5871;SDS011;2962;51.312;7.378;2022-07-19T03:03:30;6.20;;;1.90;;
5871;SDS011;2962;51.312;7.378;2022-07-19T03:06:12;2.97;;;1.67;;
5871;SDS011;2962;51.312;7.378;2022-07-19T03:08:39;1.87;;;1.50;;
5871;SDS011;2962;51.312;7.378;2022-07-19T03:11:04;2.53;;;1.97;;
5871;SDS011;2962;51.312;7.378;2022-07-19T03:13:29;2.00;;;1.90;;
5871;SDS011;2962;51.312;7.378;2022-07-19T03:15:55;5.20;;;1.60;;
5871;SDS011;2962;51.312;7.378;2022-07-19T03:18:20;1.70;;;1.60;;
5871;SDS011;2962;51.312;7.378;2022-07-19T03:20:45;4.33;;;1.87;;
5871;SDS011;2962;51.312;7.378;2022-07-19T03:23:10;5.70;;;2.27;;
5871;SDS011;2962;51.312;7.378;2022-07-19T03:25:36;2.10;;;1.97;;
5871;SDS011;2962;51.312;7.378;2022-07-19T03:28:01;8.27;;;1.83;;
5871;SDS011;2962;51.312;7.378;2022-07-19T03:30:27;2.20;;;1.60;;
5871;SDS011;2962;51.312;7.378;2022-07-19T03:32:52;1.70;;;1.60;;
5871;SDS011;2962;51.312;7.378;2022-07-19T03:35:18;1.63;;;1.40;;
5871;SDS011;2962;51.312;7.378;2022-07-19T03:37:44;1.50;;;1.47;;
5871;SDS011;2962;51.312;7.378;2022-07-19T03:40:10;1.30;;;1.20;;
5871;SDS011;2962;51.312;7.378;2022-07-19T03:42:35;1.50;;;1.40;;
5871;SDS011;2962;51.312;7.378;2022-07-19T03:45:00;2.13;;;1.90;;
5871;SDS011;2962;51.312;7.378;2022-07-19T03:47:26;4.93;;;1.50;;
5871;SDS011;2962;51.312;7.378;2022-07-19T03:49:51;3.17;;;1.77;;
5871;SDS011;2962;51.312;7.378;2022-07-19T03:52:16;2.03;;;1.10;;
5871;SDS011;2962;51.312;7.378;2022-07-19T03:54:42;2.10;;;1.97;;
5871;SDS011;2962;51.312;7.378;2022-07-19T03:57:07;2.47;;;1.83;;
5871;SDS011;2962;51.312;7.378;2022-07-19T03:59:32;4.50;;;1.63;;
5871;SDS011;2962;51.312;7.378;2022-07-19T04:01:58;3.27;;;1.80;;
5871;SDS011;2962;51.312;7.378;2022-07-19T04:04:23;4.00;;;1.53;;
5871;SDS011;2962;51.312;7.378;2022-07-19T04:06:48;2.80;;;1.70;;
5871;SDS011;2962;51.312;7.378;2022-07-19T04:09:13;5.33;;;2.13;;
5871;SDS011;2962;51.312;7.378;2022-07-19T04:11:39;4.17;;;1.80;;
5871;SDS011;2962;51.312;7.378;2022-07-19T04:14:04;10.13;;;2.00;;
5871;SDS011;2962;51.312;7.378;2022-07-19T04:16:30;7.00;;;1.70;;
5871;SDS011;2962;51.312;7.378;2022-07-19T04:18:55;2.53;;;1.80;;
5871;SDS011;2962;51.312;7.378;2022-07-19T04:21:20;1.77;;;1.67;;
5871;SDS011;2962;51.312;7.378;2022-07-19T04:23:46;1.50;;;1.50;;
5871;SDS011;2962;51.312;7.378;2022-07-19T04:26:12;1.80;;;1.70;;
5871;SDS011;2962;51.312;7.378;2022-07-19T04:28:37;4.27;;;2.37;;
5871;SDS011;2962;51.312;7.378;2022-07-19T04:31:02;2.20;;;1.40;;
5871;SDS011;2962;51.312;7.378;2022-07-19T04:33:28;6.90;;;1.60;;
5871;SDS011;2962;51.312;7.378;2022-07-19T04:35:53;3.10;;;1.97;;
5871;SDS011;2962;51.312;7.378;2022-07-19T04:38:19;2.53;;;2.00;;
5871;SDS011;2962;51.312;7.378;2022-07-19T04:40:45;1.73;;;1.40;;
5871;SDS011;2962;51.312;7.378;2022-07-19T04:43:10;2.20;;;1.50;;
5871;SDS011;2962;51.312;7.378;2022-07-19T04:45:35;3.50;;;1.97;;
5871;SDS011;2962;51.312;7.378;2022-07-19T04:48:01;4.20;;;1.73;;
5871;SDS011;2962;51.312;7.378;2022-07-19T04:50:26;2.00;;;1.27;;
5871;SDS011;2962;51.312;7.378;2022-07-19T04:52:51;4.37;;;1.90;;
5871;SDS011;2962;51.312;7.378;2022-07-19T04:55:17;2.77;;;1.67;;
5871;SDS011;2962;51.312;7.378;2022-07-19T04:57:42;2.43;;;1.80;;
5871;SDS011;2962;51.312;7.378;2022-07-19T05:00:08;1.37;;;1.37;;
5871;SDS011;2962;51.312;7.378;2022-07-19T05:02:35;3.43;;;1.70;;
5871;SDS011;2962;51.312;7.378;2022-07-19T05:05:01;5.60;;;2.03;;
5871;SDS011;2962;51.312;7.378;2022-07-19T05:07:27;2.33;;;1.70;;
5871;SDS011;2962;51.312;7.378;2022-07-19T05:09:52;4.27;;;2.03;;
5871;SDS011;2962;51.312;7.378;2022-07-19T05:12:17;2.43;;;1.90;;
5871;SDS011;2962;51.312;7.378;2022-07-19T05:14:43;6.97;;;1.73;;
5871;SDS011;2962;51.312;7.378;2022-07-19T05:17:08;5.20;;;2.00;;
5871;SDS011;2962;51.312;7.378;2022-07-19T05:19:33;3.80;;;1.57;;
5871;SDS011;2962;51.312;7.378;2022-07-19T05:21:58;2.43;;;1.93;;
5871;SDS011;2962;51.312;7.378;2022-07-19T05:24:24;4.10;;;1.80;;
5871;SDS011;2962;51.312;7.378;2022-07-19T05:26:49;4.43;;;1.60;;
5871;SDS011;2962;51.312;7.378;2022-07-19T05:29:14;1.80;;;1.80;;
5871;SDS011;2962;51.312;7.378;2022-07-19T05:31:40;3.03;;;1.43;;
5871;SDS011;2962;51.312;7.378;2022-07-19T05:34:05;3.53;;;1.90;;
5871;SDS011;2962;51.312;7.378;2022-07-19T05:36:30;6.43;;;1.80;;
5871;SDS011;2962;51.312;7.378;2022-07-19T05:38:56;5.03;;;1.50;;
5871;SDS011;2962;51.312;7.378;2022-07-19T05:41:21;4.20;;;1.43;;
5871;SDS011;2962;51.312;7.378;2022-07-19T05:43:47;1.87;;;1.70;;
5871;SDS011;2962;51.312;7.378;2022-07-19T05:46:13;5.67;;;1.70;;
5871;SDS011;2962;51.312;7.378;2022-07-19T05:48:38;2.80;;;1.73;;
5871;SDS011;2962;51.312;7.378;2022-07-19T05:51:04;3.10;;;1.87;;
5871;SDS011;2962;51.312;7.378;2022-07-19T05:53:29;12.83;;;2.30;;
5871;SDS011;2962;51.312;7.378;2022-07-19T05:55:54;2.00;;;1.70;;
5871;SDS011;2962;51.312;7.378;2022-07-19T05:58:20;3.13;;;2.23;;
5871;SDS011;2962;51.312;7.378;2022-07-19T06:00:46;3.80;;;2.20;;
5871;SDS011;2962;51.312;7.378;2022-07-19T06:03:31;10.90;;;1.93;;
5871;SDS011;2962;51.312;7.378;2022-07-19T06:05:56;2.83;;;1.90;;
5871;SDS011;2962;51.312;7.378;2022-07-19T06:08:22;2.73;;;1.90;;
5871;SDS011;2962;51.312;7.378;2022-07-19T06:10:47;1.90;;;1.80;;
5871;SDS011;2962;51.312;7.378;2022-07-19T06:13:13;2.53;;;1.77;;
5871;SDS011;2962;51.312;7.378;2022-07-19T06:15:38;3.93;;;2.30;;
5871;SDS011;2962;51.312;7.378;2022-07-19T06:18:03;3.90;;;1.97;;
5871;SDS011;2962;51.312;7.378;2022-07-19T06:20:29;5.53;;;2.17;;
5871;SDS011;2962;51.312;7.378;2022-07-19T06:22:54;3.70;;;2.30;;
5871;SDS011;2962;51.312;7.378;2022-07-19T06:25:19;3.50;;;2.60;;
5871;SDS011;2962;51.312;7.378;2022-07-19T06:27:45;2.33;;;1.77;;
5871;SDS011;2962;51.312;7.378;2022-07-19T06:30:10;2.33;;;2.10;;
5871;SDS011;2962;51.312;7.378;2022-07-19T06:32:36;2.17;;;1.50;;
5871;SDS011;2962;51.312;7.378;2022-07-19T06:35:01;4.13;;;2.40;;
5871;SDS011;2962;51.312;7.378;2022-07-19T06:37:26;5.97;;;2.00;;
5871;SDS011;2962;51.312;7.378;2022-07-19T06:39:52;2.80;;;1.93;;
5871;SDS011;2962;51.312;7.378;2022-07-19T06:42:17;5.70;;;2.13;;
5871;SDS011;2962;51.312;7.378;2022-07-19T06:44:42;2.90;;;2.60;;
5871;SDS011;2962;51.312;7.378;2022-07-19T06:47:07;3.17;;;2.97;;
5871;SDS011;2962;51.312;7.378;2022-07-19T06:49:33;3.20;;;2.90;;
5871;SDS011;2962;51.312;7.378;2022-07-19T06:51:58;6.07;;;4.70;;
5871;SDS011;2962;51.312;7.378;2022-07-19T06:54:23;6.77;;;4.20;;
5871;SDS011;2962;51.312;7.378;2022-07-19T06:56:49;4.60;;;4.23;;
5871;SDS011;2962;51.312;7.378;2022-07-19T06:59:14;5.10;;;3.60;;
5871;SDS011;2962;51.312;7.378;2022-07-19T07:01:39;3.40;;;3.10;;
5871;SDS011;2962;51.312;7.378;2022-07-19T07:04:04;3.00;;;2.87;;
5871;SDS011;2962;51.312;7.378;2022-07-19T07:06:30;3.63;;;3.33;;
5871;SDS011;2962;51.312;7.378;2022-07-19T07:08:55;4.33;;;3.40;;
5871;SDS011;2962;51.312;7.378;2022-07-19T07:11:21;3.40;;;3.10;;
5871;SDS011;2962;51.312;7.378;2022-07-19T07:13:47;6.67;;;3.37;;
5871;SDS011;2962;51.312;7.378;2022-07-19T07:16:12;3.47;;;3.03;;
5871;SDS011;2962;51.312;7.378;2022-07-19T07:18:37;5.77;;;2.67;;
5871;SDS011;2962;51.312;7.378;2022-07-19T07:21:03;7.33;;;3.10;;
5871;SDS011;2962;51.312;7.378;2022-07-19T07:23:29;2.23;;;2.13;;
5871;SDS011;2962;51.312;7.378;2022-07-19T07:25:54;3.77;;;2.20;;
5871;SDS011;2962;51.312;7.378;2022-07-19T07:28:19;3.07;;;2.17;;
5871;SDS011;2962;51.312;7.378;2022-07-19T07:30:44;5.60;;;2.40;;
5871;SDS011;2962;51.312;7.378;2022-07-19T07:33:10;2.67;;;2.50;;
5871;SDS011;2962;51.312;7.378;2022-07-19T07:35:35;7.30;;;2.23;;
5871;SDS011;2962;51.312;7.378;2022-07-19T07:38:00;7.13;;;2.03;;
5871;SDS011;2962;51.312;7.378;2022-07-19T07:40:26;2.10;;;2.00;;
5871;SDS011;2962;51.312;7.378;2022-07-19T07:42:51;2.83;;;2.20;;
5871;SDS011;2962;51.312;7.378;2022-07-19T07:45:16;3.93;;;1.97;;
5871;SDS011;2962;51.312;7.378;2022-07-19T07:47:41;4.43;;;2.17;;
5871;SDS011;2962;51.312;7.378;2022-07-19T07:50:07;2.23;;;2.13;;
5871;SDS011;2962;51.312;7.378;2022-07-19T07:52:34;3.43;;;1.83;;
5871;SDS011;2962;51.312;7.378;2022-07-19T07:54:59;2.00;;;1.90;;
5871;SDS011;2962;51.312;7.378;2022-07-19T07:57:26;2.33;;;1.87;;
5871;SDS011;2962;51.312;7.378;2022-07-19T07:59:51;6.67;;;2.10;;
5871;SDS011;2962;51.312;7.378;2022-07-19T08:02:17;9.27;;;2.20;;
5871;SDS011;2962;51.312;7.378;2022-07-19T08:04:42;2.20;;;2.10;;
5871;SDS011;2962;51.312;7.378;2022-07-19T08:07:07;3.53;;;2.00;;
5871;SDS011;2962;51.312;7.378;2022-07-19T08:09:32;10.47;;;1.73;;
5871;SDS011;2962;51.312;7.378;2022-07-19T08:11:58;3.80;;;2.13;;
5871;SDS011;2962;51.312;7.378;2022-07-19T08:14:23;2.20;;;1.93;;
5871;SDS011;2962;51.312;7.378;2022-07-19T08:16:48;3.23;;;1.87;;
5871;SDS011;2962;51.312;7.378;2022-07-19T08:19:14;4.73;;;1.50;;
5871;SDS011;2962;51.312;7.378;2022-07-19T08:21:39;2.40;;;2.10;;
5871;SDS011;2962;51.312;7.378;2022-07-19T08:24:04;5.90;;;2.23;;
5871;SDS011;2962;51.312;7.378;2022-07-19T08:26:30;3.00;;;2.13;;
5871;SDS011;2962;51.312;7.378;2022-07-19T08:28:56;4.23;;;2.00;;
5871;SDS011;2962;51.312;7.378;2022-07-19T08:31:21;9.80;;;2.20;;
5871;SDS011;2962;51.312;7.378;2022-07-19T08:33:47;2.37;;;2.27;;
5871;SDS011;2962;51.312;7.378;2022-07-19T08:36:12;2.87;;;2.70;;
5871;SDS011;2962;51.312;7.378;2022-07-19T08:38:38;6.40;;;2.93;;
5871;SDS011;2962;51.312;7.378;2022-07-19T08:41:03;2.20;;;1.70;;
5871;SDS011;2962;51.312;7.378;2022-07-19T08:43:29;2.10;;;1.80;;
5871;SDS011;2962;51.312;7.378;2022-07-19T08:45:57;2.47;;;1.70;;
5871;SDS011;2962;51.312;7.378;2022-07-19T08:48:24;2.60;;;1.90;;
5871;SDS011;2962;51.312;7.378;2022-07-19T08:50:50;2.97;;;2.43;;
5871;SDS011;2962;51.312;7.378;2022-07-19T08:53:17;4.03;;;2.10;;
5871;SDS011;2962;51.312;7.378;2022-07-19T08:55:43;4.30;;;2.37;;
5871;SDS011;2962;51.312;7.378;2022-07-19T08:58:09;2.43;;;1.73;;
5871;SDS011;2962;51.312;7.378;2022-07-19T09:00:34;4.20;;;1.73;;
5871;SDS011;2962;51.312;7.378;2022-07-19T09:03:01;4.00;;;2.40;;
5871;SDS011;2962;51.312;7.378;2022-07-19T09:05:28;1.80;;;1.70;;
5871;SDS011;2962;51.312;7.378;2022-07-19T09:10:25;2.13;;;1.87;;
5871;SDS011;2962;51.312;7.378;2022-07-19T09:15:25;1.93;;;1.80;;
5871;SDS011;2962;51.312;7.378;2022-07-19T09:18:11;3.43;;;1.60;;
5871;SDS011;2962;51.312;7.378;2022-07-19T09:20:43;2.97;;;2.33;;
5871;SDS011;2962;51.312;7.378;2022-07-19T09:23:10;3.53;;;2.20;;
5871;SDS011;2962;51.312;7.378;2022-07-19T09:25:37;1.93;;;1.43;;
5871;SDS011;2962;51.312;7.378;2022-07-19T09:28:03;2.20;;;1.80;;
5871;SDS011;2962;51.312;7.378;2022-07-19T09:30:32;4.03;;;1.83;;
5871;SDS011;2962;51.312;7.378;2022-07-19T09:33:12;4.00;;;1.80;;
5871;SDS011;2962;51.312;7.378;2022-07-19T09:35:51;2.10;;;1.83;;
5871;SDS011;2962;51.312;7.378;2022-07-19T09:38:20;1.97;;;1.87;;
5871;SDS011;2962;51.312;7.378;2022-07-19T09:40:54;3.07;;;2.20;;
5871;SDS011;2962;51.312;7.378;2022-07-19T09:46:38;3.13;;;2.50;;
5871;SDS011;2962;51.312;7.378;2022-07-19T09:49:09;6.07;;;2.67;;
5871;SDS011;2962;51.312;7.378;2022-07-19T09:51:36;2.97;;;1.80;;
5871;SDS011;2962;51.312;7.378;2022-07-19T09:54:04;3.33;;;2.20;;
5871;SDS011;2962;51.312;7.378;2022-07-19T09:56:31;2.97;;;1.90;;
5871;SDS011;2962;51.312;7.378;2022-07-19T09:58:57;7.10;;;2.00;;
5871;SDS011;2962;51.312;7.378;2022-07-19T10:01:23;2.13;;;2.13;;
5871;SDS011;2962;51.312;7.378;2022-07-19T10:03:50;2.00;;;1.90;;
5871;SDS011;2962;51.312;7.378;2022-07-19T10:06:19;1.80;;;1.80;;
5871;SDS011;2962;51.312;7.378;2022-07-19T10:08:44;1.90;;;1.80;;
5871;SDS011;2962;51.312;7.378;2022-07-19T10:11:10;3.00;;;1.87;;
5871;SDS011;2962;51.312;7.378;2022-07-19T10:13:36;2.00;;;1.90;;
5871;SDS011;2962;51.312;7.378;2022-07-19T10:16:01;1.90;;;1.70;;
5871;SDS011;2962;51.312;7.378;2022-07-19T10:18:32;3.93;;;2.00;;
5871;SDS011;2962;51.312;7.378;2022-07-19T10:21:08;2.47;;;1.77;;
5871;SDS011;2962;51.312;7.378;2022-07-19T10:23:34;4.63;;;2.30;;
5871;SDS011;2962;51.312;7.378;2022-07-19T10:25:59;6.40;;;1.60;;
5871;SDS011;2962;51.312;7.378;2022-07-19T10:28:28;2.00;;;1.90;;
5871;SDS011;2962;51.312;7.378;2022-07-19T10:30:55;2.23;;;2.13;;
5871;SDS011;2962;51.312;7.378;2022-07-19T10:33:31;4.37;;;2.00;;
5871;SDS011;2962;51.312;7.378;2022-07-19T10:36:33;2.03;;;1.80;;
5871;SDS011;2962;51.312;7.378;2022-07-19T10:44:28;3.93;;;2.17;;
5871;SDS011;2962;51.312;7.378;2022-07-19T10:46:54;2.30;;;2.10;;
5871;SDS011;2962;51.312;7.378;2022-07-19T11:00:25;2.17;;;1.97;;
5871;SDS011;2962;51.312;7.378;2022-07-19T11:03:26;2.17;;;2.00;;
5871;SDS011;2962;51.312;7.378;2022-07-19T11:05:57;5.60;;;1.90;;
5871;SDS011;2962;51.312;7.378;2022-07-19T11:13:29;2.00;;;1.90;;
5871;SDS011;2962;51.312;7.378;2022-07-19T11:15:58;5.50;;;2.40;;
5871;SDS011;2962;51.312;7.378;2022-07-19T11:18:24;2.47;;;2.27;;
5871;SDS011;2962;51.312;7.378;2022-07-19T11:20:49;2.90;;;2.00;;
5871;SDS011;2962;51.312;7.378;2022-07-19T11:23:18;6.60;;;2.60;;
5871;SDS011;2962;51.312;7.378;2022-07-19T11:25:45;3.03;;;2.40;;
5871;SDS011;2962;51.312;7.378;2022-07-19T11:28:20;3.20;;;2.20;;
5871;SDS011;2962;51.312;7.378;2022-07-19T11:30:47;2.80;;;1.93;;
5871;SDS011;2962;51.312;7.378;2022-07-19T11:33:15;2.47;;;2.20;;
5871;SDS011;2962;51.312;7.378;2022-07-19T11:35:52;2.10;;;1.90;;
5871;SDS011;2962;51.312;7.378;2022-07-19T11:38:21;1.93;;;1.87;;
5871;SDS011;2962;51.312;7.378;2022-07-19T11:40:46;3.03;;;2.50;;
5871;SDS011;2962;51.312;7.378;2022-07-19T11:43:11;2.23;;;2.13;;
5871;SDS011;2962;51.312;7.378;2022-07-19T11:45:41;4.40;;;2.20;;
5871;SDS011;2962;51.312;7.378;2022-07-19T11:48:08;2.27;;;2.07;;
5871;SDS011;2962;51.312;7.378;2022-07-19T11:50:33;4.57;;;2.10;;
5871;SDS011;2962;51.312;7.378;2022-07-19T11:52:59;1.70;;;1.70;;
5871;SDS011;2962;51.312;7.378;2022-07-19T11:55:26;5.53;;;2.13;;
5871;SDS011;2962;51.312;7.378;2022-07-19T11:58:06;2.60;;;2.40;;
5871;SDS011;2962;51.312;7.378;2022-07-19T12:00:33;2.37;;;2.13;;
5871;SDS011;2962;51.312;7.378;2022-07-19T12:03:00;2.57;;;2.37;;
5871;SDS011;2962;51.312;7.378;2022-07-19T12:05:35;4.90;;;2.30;;
5871;SDS011;2962;51.312;7.378;2022-07-19T12:08:03;2.97;;;2.50;;
5871;SDS011;2962;51.312;7.378;2022-07-19T12:10:41;6.30;;;2.23;;
5871;SDS011;2962;51.312;7.378;2022-07-19T12:13:15;3.30;;;2.50;;
5871;SDS011;2962;51.312;7.378;2022-07-19T12:15:54;2.50;;;2.33;;
5871;SDS011;2962;51.312;7.378;2022-07-19T12:21:22;2.00;;;1.90;;
5871;SDS011;2962;51.312;7.378;2022-07-19T12:26:37;2.93;;;1.77;;
5871;SDS011;2962;51.312;7.378;2022-07-19T12:29:15;1.70;;;1.70;;
5871;SDS011;2962;51.312;7.378;2022-07-19T12:31:46;2.17;;;2.03;;
5871;SDS011;2962;51.312;7.378;2022-07-19T12:34:13;4.57;;;2.00;;
5871;SDS011;2962;51.312;7.378;2022-07-19T12:36:39;5.07;;;2.07;;
5871;SDS011;2962;51.312;7.378;2022-07-19T12:39:04;3.80;;;2.23;;
5871;SDS011;2962;51.312;7.378;2022-07-19T12:41:51;1.80;;;1.70;;
5871;SDS011;2962;51.312;7.378;2022-07-19T12:44:18;3.03;;;2.10;;
5871;SDS011;2962;51.312;7.378;2022-07-19T12:46:43;2.17;;;2.07;;
5871;SDS011;2962;51.312;7.378;2022-07-19T12:49:09;2.50;;;2.30;;
5871;SDS011;2962;51.312;7.378;2022-07-19T12:51:34;2.47;;;2.38;;
5871;SDS011;2962;51.312;7.378;2022-07-19T12:54:00;2.55;;;2.20;;
5871;SDS011;2962;51.312;7.378;2022-07-19T12:56:25;1.88;;;1.77;;
5871;SDS011;2962;51.312;7.378;2022-07-19T12:58:50;1.90;;;1.80;;
5871;SDS011;2962;51.312;7.378;2022-07-19T13:01:34;3.75;;;1.85;;
5871;SDS011;2962;51.312;7.378;2022-07-19T13:04:00;1.52;;;1.52;;
5871;SDS011;2962;51.312;7.378;2022-07-19T13:06:25;3.83;;;2.20;;
5871;SDS011;2962;51.312;7.378;2022-07-19T13:08:50;3.38;;;1.60;;
5871;SDS011;2962;51.312;7.378;2022-07-19T13:11:15;2.00;;;2.00;;
5871;SDS011;2962;51.312;7.378;2022-07-19T13:13:41;2.20;;;2.08;;
5871;SDS011;2962;51.312;7.378;2022-07-19T13:16:06;3.35;;;1.65;;
5871;SDS011;2962;51.312;7.378;2022-07-19T13:18:32;2.35;;;2.15;;
5871;SDS011;2962;51.312;7.378;2022-07-19T13:20:57;3.88;;;1.90;;
5871;SDS011;2962;51.312;7.378;2022-07-19T13:23:22;6.97;;;2.00;;
5871;SDS011;2962;51.312;7.378;2022-07-19T13:25:48;1.83;;;1.83;;
5871;SDS011;2962;51.312;7.378;2022-07-19T13:28:13;1.92;;;1.67;;
5871;SDS011;2962;51.312;7.378;2022-07-19T13:30:38;1.30;;;1.30;;
5871;SDS011;2962;51.312;7.378;2022-07-19T13:33:04;2.28;;;1.52;;
5871;SDS011;2962;51.312;7.378;2022-07-19T13:35:29;3.50;;;1.70;;
5871;SDS011;2962;51.312;7.378;2022-07-19T13:37:55;4.75;;;1.80;;
5871;SDS011;2962;51.312;7.378;2022-07-19T13:40:20;3.78;;;1.77;;
5871;SDS011;2962;51.312;7.378;2022-07-19T13:42:46;3.75;;;1.63;;
5871;SDS011;2962;51.312;7.378;2022-07-19T13:45:11;2.30;;;2.10;;
5871;SDS011;2962;51.312;7.378;2022-07-19T13:47:36;6.35;;;2.20;;
5871;SDS011;2962;51.312;7.378;2022-07-19T13:50:03;1.70;;;1.70;;
5871;SDS011;2962;51.312;7.378;2022-07-19T13:52:30;2.85;;;1.90;;
5871;SDS011;2962;51.312;7.378;2022-07-19T13:54:56;2.00;;;1.52;;
5871;SDS011;2962;51.312;7.378;2022-07-19T13:57:21;1.75;;;1.60;;
5871;SDS011;2962;51.312;7.378;2022-07-19T13:59:46;1.85;;;1.65;;
5871;SDS011;2962;51.312;7.378;2022-07-19T14:02:11;1.92;;;1.83;;
5871;SDS011;2962;51.312;7.378;2022-07-19T14:04:37;1.70;;;1.70;;
5871;SDS011;2962;51.312;7.378;2022-07-19T14:07:02;1.70;;;1.70;;
5871;SDS011;2962;51.312;7.378;2022-07-19T14:09:27;2.25;;;1.88;;
5871;SDS011;2962;51.312;7.378;2022-07-19T14:11:53;1.75;;;1.65;;
5871;SDS011;2962;51.312;7.378;2022-07-19T14:14:19;2.05;;;1.85;;
5871;SDS011;2962;51.312;7.378;2022-07-19T14:16:44;1.77;;;1.77;;
5871;SDS011;2962;51.312;7.378;2022-07-19T14:19:11;5.00;;;1.63;;
5871;SDS011;2962;51.312;7.378;2022-07-19T14:21:36;2.00;;;1.90;;
5871;SDS011;2962;51.312;7.378;2022-07-19T14:24:02;2.22;;;1.80;;
5871;SDS011;2962;51.312;7.378;2022-07-19T14:26:28;3.97;;;2.05;;
5871;SDS011;2962;51.312;7.378;2022-07-19T14:28:54;2.13;;;1.95;;
5871;SDS011;2962;51.312;7.378;2022-07-19T14:31:19;2.60;;;2.30;;
5871;SDS011;2962;51.312;7.378;2022-07-19T14:33:44;2.60;;;2.35;;
5871;SDS011;2962;51.312;7.378;2022-07-19T14:36:10;2.88;;;2.05;;
5871;SDS011;2962;51.312;7.378;2022-07-19T14:38:35;9.93;;;2.22;;
5871;SDS011;2962;51.312;7.378;2022-07-19T14:41:00;2.53;;;2.30;;
5871;SDS011;2962;51.312;7.378;2022-07-19T14:43:26;3.03;;;2.13;;
5871;SDS011;2962;51.312;7.378;2022-07-19T14:45:51;6.18;;;2.60;;
5871;SDS011;2962;51.312;7.378;2022-07-19T14:48:17;2.22;;;2.10;;
5871;SDS011;2962;51.312;7.378;2022-07-19T14:50:42;2.47;;;2.10;;
5871;SDS011;2962;51.312;7.378;2022-07-19T14:53:09;2.15;;;2.05;;
5871;SDS011;2962;51.312;7.378;2022-07-19T14:55:35;1.88;;;1.88;;
5871;SDS011;2962;51.312;7.378;2022-07-19T14:58:00;2.65;;;2.65;;
5871;SDS011;2962;51.312;7.378;2022-07-19T15:00:26;2.55;;;2.45;;
5871;SDS011;2962;51.312;7.378;2022-07-19T15:02:51;2.60;;;2.50;;
5871;SDS011;2962;51.312;7.378;2022-07-19T15:05:16;3.45;;;2.33;;
5871;SDS011;2962;51.312;7.378;2022-07-19T15:07:41;2.78;;;2.58;;
5871;SDS011;2962;51.312;7.378;2022-07-19T15:10:07;2.88;;;2.70;;
5871;SDS011;2962;51.312;7.378;2022-07-19T15:12:32;6.38;;;2.55;;
5871;SDS011;2962;51.312;7.378;2022-07-19T15:14:58;4.10;;;2.63;;
5871;SDS011;2962;51.312;7.378;2022-07-19T15:17:23;3.15;;;2.67;;
5871;SDS011;2962;51.312;7.378;2022-07-19T15:19:49;2.60;;;2.40;;
5871;SDS011;2962;51.312;7.378;2022-07-19T15:22:17;2.20;;;2.10;;
5871;SDS011;2962;51.312;7.378;2022-07-19T15:24:42;3.42;;;2.17;;
5871;SDS011;2962;51.312;7.378;2022-07-19T15:27:07;2.72;;;2.28;;
5871;SDS011;2962;51.312;7.378;2022-07-19T15:29:33;2.80;;;2.60;;
5871;SDS011;2962;51.312;7.378;2022-07-19T15:31:58;4.53;;;2.10;;
5871;SDS011;2962;51.312;7.378;2022-07-19T15:34:23;4.43;;;2.20;;
5871;SDS011;2962;51.312;7.378;2022-07-19T15:36:49;2.45;;;2.35;;
5871;SDS011;2962;51.312;7.378;2022-07-19T15:39:14;3.35;;;2.35;;
5871;SDS011;2962;51.312;7.378;2022-07-19T15:41:39;2.35;;;2.25;;
5871;SDS011;2962;51.312;7.378;2022-07-19T15:44:04;4.95;;;2.30;;
5871;SDS011;2962;51.312;7.378;2022-07-19T15:46:30;2.88;;;2.67;;